»·PEaware :: SWA2247 KPHX-KLAX

SWA2247 :: KPHX-KLAX

FLIGHT INFORMATION

Flight Status: Arrived
Operator:
Southwest Airlines
More flights by this operator :: More flights under this callsign
Pilot: Ben F. (2808)
Aircraft: BOEING 737-300
(B733)
More flights by this aircraft type
Origin: KPHX Phoenix Sky Harbor Intl
United States
Destination: KLAX Los Angeles Intl
United States
More flights between these airports :: More routes between these airports
Route: +IZZZO6 MESSI ESTWD HLYWD1
File this flight plan on PilotEdge
Remarks:
Altitude:
(Current/Filed)
32,000ft
Speed:
(Current/Filed)
433kts
Departed: 25-Mar-18 08:06 AM
Arrived: 25-Mar-18 09:13 AM
Distance/Time
Traveled:
321nm/1:07
Distance/Time
To Go:
Arrived

Flight Plot

Page will automatically refresh every two minutes.

Flight plan parsing failed; only flown route is shown


Map Options




Map Legend


Flown Route
Filed Route
Departure Airport
Arrival Airport
Navaid (VOR, NDB)
Fix

Horizontal Profiles

Position Reports

Time Latitude Longitude Heading Altitude Ground
Speed
25-Mar-18 07:44 33.434068 -111.996235 285 1141ft 0kts
25-Mar-18 07:45 33.434068 -111.996235 285 1141ft 0kts
25-Mar-18 07:46 33.434068 -111.996235 285 1141ft 0kts
25-Mar-18 07:47 33.434068 -111.996235 285 1141ft 0kts
25-Mar-18 07:48 33.434068 -111.996235 285 1141ft 0kts
25-Mar-18 07:49 33.434068 -111.996235 285 1141ft 0kts
25-Mar-18 07:50 33.434068 -111.996235 285 1141ft 0kts
25-Mar-18 07:51 33.434068 -111.996235 285 1141ft 0kts
25-Mar-18 07:52 33.434068 -111.996235 285 1141ft 0kts
25-Mar-18 07:53 33.434068 -111.996235 285 1141ft 0kts
25-Mar-18 07:54 33.434068 -111.996235 285 1141ft 0kts
25-Mar-18 07:55 33.434068 -111.996235 285 1141ft 0kts
25-Mar-18 07:56 33.434156 -111.995756 193 1141ft 2kts
25-Mar-18 07:57 33.434266 -111.995753 178 1141ft 0kts
25-Mar-18 07:58 33.434222 -111.995752 178 1141ft 1kts
25-Mar-18 07:59 33.433298 -111.995764 181 1141ft 4kts
25-Mar-18 08:00 33.432839 -112.000658 270 1141ft 19kts
25-Mar-18 08:01 33.432892 -112.007655 270 1141ft 22kts
25-Mar-18 08:02 33.432882 -112.015598 270 1141ft 25kts
25-Mar-18 08:03 33.432897 -112.024274 270 1141ft 27kts
25-Mar-18 08:04 33.431991 -112.026978 180 1141ft 2kts
25-Mar-18 08:05 33.431043 -112.012309 90 1141ft 138kts
25-Mar-18 08:06 33.432799 -111.952559 88 2344ft 221kts
25-Mar-18 08:07 33.432508 -111.877914 116 5252ft 229kts
25-Mar-18 08:08 33.379765 -111.848881 205 7837ft 235kts
25-Mar-18 08:09 33.355061 -111.915005 272 8020ft 249kts
25-Mar-18 08:10 33.367325 -112.004544 275 9587ft 283kts
25-Mar-18 08:11 33.381217 -112.102854 276 11604ft 324kts
25-Mar-18 08:12 33.396501 -112.211121 275 14360ft 336kts
25-Mar-18 08:13 33.412078 -112.322328 275 17055ft 343kts
25-Mar-18 08:14 33.425197 -112.416591 274 18966ft 348kts
25-Mar-18 08:15 33.443779 -112.551037 274 21325ft 355kts
25-Mar-18 08:16 33.451273 -112.667054 266 23325ft 358kts
25-Mar-18 08:17 33.452447 -112.766304 266 25018ft 362kts
25-Mar-18 08:18 33.489137 -112.904004 285 27141ft 383kts
25-Mar-18 08:19 33.523674 -113.002177 285 28682ft 382kts
25-Mar-18 08:20 33.563804 -113.116964 284 30804ft 369kts
25-Mar-18 08:21 33.602720 -113.228740 283 32034ft 371kts
25-Mar-18 08:22 33.648815 -113.359964 284 32019ft 373kts
25-Mar-18 08:23 33.681360 -113.455705 284 32020ft 373kts
25-Mar-18 08:24 33.720919 -113.571128 284 32018ft 374kts
25-Mar-18 08:25 33.759345 -113.683559 283 32000ft 373kts
25-Mar-18 08:26 33.798378 -113.798197 283 32008ft 372kts
25-Mar-18 08:27 33.837185 -113.912986 283 32006ft 372kts
25-Mar-18 08:28 33.876101 -114.028081 283 32006ft 372kts
25-Mar-18 08:29 33.910726 -114.144334 274 32003ft 363kts
25-Mar-18 08:30 33.930635 -114.263449 274 32012ft 363kts
25-Mar-18 08:31 33.950561 -114.381688 274 32009ft 364kts
25-Mar-18 08:32 33.970618 -114.501091 274 32006ft 364kts
25-Mar-18 08:33 33.990643 -114.620481 274 32009ft 364kts
25-Mar-18 08:34 34.009471 -114.733448 274 32012ft 364kts
25-Mar-18 08:35 34.029269 -114.852911 274 32011ft 363kts
25-Mar-18 08:36 34.048912 -114.972200 274 32009ft 364kts
25-Mar-18 08:37 34.068100 -115.091929 274 32010ft 365kts
25-Mar-18 08:38 34.087519 -115.211773 274 32009ft 366kts
25-Mar-18 08:39 34.106347 -115.327375 274 32030ft 366kts
25-Mar-18 08:40 34.125793 -115.447340 274 32069ft 366kts
25-Mar-18 08:41 34.145062 -115.567859 274 32076ft 366kts
25-Mar-18 08:42 34.163084 -115.682772 270 32056ft 363kts
25-Mar-18 08:43 34.154581 -115.788733 259 32076ft 356kts
25-Mar-18 08:44 34.143018 -115.907382 259 32072ft 356kts
25-Mar-18 08:45 34.131416 -116.025824 259 32075ft 356kts
25-Mar-18 08:46 34.119751 -116.144424 259 32075ft 357kts
25-Mar-18 08:47 34.108026 -116.263254 259 32058ft 357kts
25-Mar-18 08:48 34.096407 -116.373798 259 32035ft 357kts
25-Mar-18 08:49 34.083733 -116.492293 259 32019ft 357kts
25-Mar-18 08:50 34.071449 -116.608900 260 29761ft 345kts
25-Mar-18 08:51 34.061241 -116.718654 261 27324ft 371kts
25-Mar-18 08:52 34.050338 -116.836141 261 25006ft 349kts
25-Mar-18 08:53 34.037593 -116.948204 259 23794ft 347kts
25-Mar-18 08:54 34.022988 -117.063462 261 19719ft 365kts
25-Mar-18 08:55 34.009898 -117.174048 262 17722ft 316kts
25-Mar-18 08:56 33.997689 -117.275973 262 15512ft 312kts
25-Mar-18 08:57 33.985973 -117.374905 262 13426ft 301kts
25-Mar-18 08:58 33.974765 -117.470294 262 12635ft 290kts
25-Mar-18 08:59 33.990085 -117.562376 284 11672ft 289kts
25-Mar-18 09:00 34.010539 -117.648794 286 10479ft 262kts
25-Mar-18 09:01 34.020490 -117.714673 266 9988ft 260kts
25-Mar-18 09:02 34.012593 -117.798755 267 9203ft 257kts
25-Mar-18 09:03 34.004575 -117.883473 267 8226ft 261kts
25-Mar-18 09:04 33.996385 -117.968351 266 7091ft 262kts
25-Mar-18 09:05 33.989259 -118.039628 266 6000ft 253kts
25-Mar-18 09:06 33.981359 -118.118357 265 4898ft 249kts
25-Mar-18 09:07 33.973278 -118.197591 264 3514ft 229kts
25-Mar-18 09:08 33.966544 -118.262912 263 2434ft 176kts
25-Mar-18 09:09 33.961620 -118.310610 263 1652ft 144kts
25-Mar-18 09:10 33.956809 -118.357500 262 890ft 144kts
25-Mar-18 09:11 33.951887 -118.404190 263 143ft 140kts
25-Mar-18 09:12 33.948578 -118.426683 225 132ft 0kts
25-Mar-18 09:13 33.948525 -118.426748 225 132ft 0kts
25-Mar-18 09:14 33.948475 -118.426809 225 132ft 1kts
25-Mar-18 09:15 33.946404 -118.426452 83 132ft 17kts
25-Mar-18 09:16 33.947128 -118.419440 83 132ft 23kts
25-Mar-18 09:17 33.948113 -118.411087 82 132ft 27kts
25-Mar-18 09:18 33.948587 -118.402961 152 132ft 15kts
25-Mar-18 09:19 33.947387 -118.401827 112 132ft 0kts
25-Mar-18 09:20 33.947387 -118.401827 112 132ft 0kts

Navigation Log

Ident Type
Flight plan parsing failed, navigation log unavailable